sensor_id;sensor_type;location;lat;lon;timestamp;temperature;humidity
23114;DHT22;11726;50.122;8.832;2023-04-03T00:02:17;5.50;99.90
23114;DHT22;11726;50.122;8.832;2023-04-03T00:04:44;5.50;99.90
23114;DHT22;11726;50.122;8.832;2023-04-03T00:07:11;5.50;99.90
23114;DHT22;11726;50.122;8.832;2023-04-03T00:09:38;5.50;99.90
23114;DHT22;11726;50.122;8.832;2023-04-03T00:12:05;5.40;99.90
23114;DHT22;11726;50.122;8.832;2023-04-03T00:14:32;5.40;99.90
23114;DHT22;11726;50.122;8.832;2023-04-03T00:16:59;5.40;99.90
23114;DHT22;11726;50.122;8.832;2023-04-03T00:19:26;5.50;99.90
23114;DHT22;11726;50.122;8.832;2023-04-03T00:21:52;5.40;99.90
23114;DHT22;11726;50.122;8.832;2023-04-03T00:24:19;5.50;99.90
23114;DHT22;11726;50.122;8.832;2023-04-03T00:26:46;5.50;99.90
23114;DHT22;11726;50.122;8.832;2023-04-03T00:29:13;5.40;99.90
23114;DHT22;11726;50.122;8.832;2023-04-03T00:31:40;5.40;99.90
23114;DHT22;11726;50.122;8.832;2023-04-03T00:34:06;5.40;99.90
23114;DHT22;11726;50.122;8.832;2023-04-03T00:36:33;5.40;99.90
23114;DHT22;11726;50.122;8.832;2023-04-03T00:39:00;5.40;99.90
23114;DHT22;11726;50.122;8.832;2023-04-03T00:41:27;5.40;99.90
23114;DHT22;11726;50.122;8.832;2023-04-03T00:43:54;5.40;99.90
23114;DHT22;11726;50.122;8.832;2023-04-03T00:46:21;5.40;99.90
23114;DHT22;11726;50.122;8.832;2023-04-03T00:48:48;5.40;99.90
23114;DHT22;11726;50.122;8.832;2023-04-03T00:51:22;5.30;99.90
23114;DHT22;11726;50.122;8.832;2023-04-03T00:53:59;5.30;99.90
23114;DHT22;11726;50.122;8.832;2023-04-03T00:56:28;5.30;99.90
23114;DHT22;11726;50.122;8.832;2023-04-03T00:59:06;5.40;99.90
23114;DHT22;11726;50.122;8.832;2023-04-03T01:01:34;5.30;99.90
23114;DHT22;11726;50.122;8.832;2023-04-03T01:04:03;5.30;99.90
23114;DHT22;11726;50.122;8.832;2023-04-03T01:06:35;5.30;99.90
23114;DHT22;11726;50.122;8.832;2023-04-03T01:09:04;5.30;99.90
23114;DHT22;11726;50.122;8.832;2023-04-03T01:11:31;5.30;99.90
23114;DHT22;11726;50.122;8.832;2023-04-03T01:13:58;5.20;99.90
23114;DHT22;11726;50.122;8.832;2023-04-03T01:16:24;5.20;99.90
23114;DHT22;11726;50.122;8.832;2023-04-03T01:18:51;5.20;99.90
23114;DHT22;11726;50.122;8.832;2023-04-03T01:26:50;5.20;99.90
23114;DHT22;11726;50.122;8.832;2023-04-03T01:29:17;5.10;99.90
23114;DHT22;11726;50.122;8.832;2023-04-03T01:31:58;5.20;99.90
23114;DHT22;11726;50.122;8.832;2023-04-03T01:34:27;5.10;99.90
23114;DHT22;11726;50.122;8.832;2023-04-03T01:36:54;5.10;99.90
23114;DHT22;11726;50.122;8.832;2023-04-03T01:39:22;5.10;99.90
23114;DHT22;11726;50.122;8.832;2023-04-03T01:41:49;5.20;99.90
23114;DHT22;11726;50.122;8.832;2023-04-03T01:44:15;5.20;99.90
23114;DHT22;11726;50.122;8.832;2023-04-03T01:46:42;5.10;99.90
23114;DHT22;11726;50.122;8.832;2023-04-03T01:49:09;5.10;99.90
23114;DHT22;11726;50.122;8.832;2023-04-03T01:51:36;5.00;99.90
23114;DHT22;11726;50.122;8.832;2023-04-03T01:54:03;5.00;99.90
23114;DHT22;11726;50.122;8.832;2023-04-03T01:56:30;5.10;99.90
23114;DHT22;11726;50.122;8.832;2023-04-03T01:58:57;5.10;99.90
23114;DHT22;11726;50.122;8.832;2023-04-03T02:01:23;5.10;99.90
23114;DHT22;11726;50.122;8.832;2023-04-03T02:03:50;5.10;99.90
23114;DHT22;11726;50.122;8.832;2023-04-03T02:06:17;5.10;99.90
23114;DHT22;11726;50.122;8.832;2023-04-03T02:08:44;5.20;99.90
23114;DHT22;11726;50.122;8.832;2023-04-03T02:11:10;5.30;99.90
23114;DHT22;11726;50.122;8.832;2023-04-03T02:13:37;5.30;99.90
23114;DHT22;11726;50.122;8.832;2023-04-03T02:16:09;5.30;99.90
23114;DHT22;11726;50.122;8.832;2023-04-03T02:18:37;5.30;99.90
23114;DHT22;11726;50.122;8.832;2023-04-03T02:21:04;5.30;99.90
23114;DHT22;11726;50.122;8.832;2023-04-03T02:23:31;5.20;99.90
23114;DHT22;11726;50.122;8.832;2023-04-03T02:26:10;5.30;99.90
23114;DHT22;11726;50.122;8.832;2023-04-03T02:28:37;5.30;99.90
23114;DHT22;11726;50.122;8.832;2023-04-03T02:31:04;5.30;99.90
23114;DHT22;11726;50.122;8.832;2023-04-03T02:33:33;5.30;99.90
23114;DHT22;11726;50.122;8.832;2023-04-03T02:36:00;5.30;99.90
23114;DHT22;11726;50.122;8.832;2023-04-03T02:38:26;5.30;99.90
23114;DHT22;11726;50.122;8.832;2023-04-03T02:40:53;5.20;99.90
23114;DHT22;11726;50.122;8.832;2023-04-03T02:43:25;5.20;99.90
23114;DHT22;11726;50.122;8.832;2023-04-03T02:45:52;5.20;99.90
23114;DHT22;11726;50.122;8.832;2023-04-03T02:48:18;5.30;99.90
23114;DHT22;11726;50.122;8.832;2023-04-03T02:50:45;5.30;99.90
23114;DHT22;11726;50.122;8.832;2023-04-03T02:53:12;5.30;99.90
23114;DHT22;11726;50.122;8.832;2023-04-03T02:55:39;5.30;99.90
23114;DHT22;11726;50.122;8.832;2023-04-03T02:58:06;5.30;99.90
23114;DHT22;11726;50.122;8.832;2023-04-03T03:00:35;5.30;99.90
23114;DHT22;11726;50.122;8.832;2023-04-03T03:03:05;5.30;99.90
23114;DHT22;11726;50.122;8.832;2023-04-03T03:05:32;5.20;99.90
23114;DHT22;11726;50.122;8.832;2023-04-03T03:07:59;5.20;99.90
23114;DHT22;11726;50.122;8.832;2023-04-03T03:10:26;5.20;99.90
23114;DHT22;11726;50.122;8.832;2023-04-03T03:12:52;5.20;99.90
23114;DHT22;11726;50.122;8.832;2023-04-03T03:15:19;5.20;99.90
23114;DHT22;11726;50.122;8.832;2023-04-03T03:17:46;5.20;99.90
23114;DHT22;11726;50.122;8.832;2023-04-03T03:20:13;5.20;99.90
23114;DHT22;11726;50.122;8.832;2023-04-03T03:22:42;5.00;99.90
23114;DHT22;11726;50.122;8.832;2023-04-03T03:25:09;5.00;99.90
23114;DHT22;11726;50.122;8.832;2023-04-03T03:27:36;5.00;99.90
23114;DHT22;11726;50.122;8.832;2023-04-03T03:30:04;4.90;99.90
23114;DHT22;11726;50.122;8.832;2023-04-03T03:32:31;4.90;99.90
23114;DHT22;11726;50.122;8.832;2023-04-03T03:34:57;4.90;99.90
23114;DHT22;11726;50.122;8.832;2023-04-03T03:37:24;4.90;99.90
23114;DHT22;11726;50.122;8.832;2023-04-03T03:39:51;4.80;99.90
23114;DHT22;11726;50.122;8.832;2023-04-03T03:42:17;4.80;99.90
23114;DHT22;11726;50.122;8.832;2023-04-03T03:44:44;4.70;99.90
23114;DHT22;11726;50.122;8.832;2023-04-03T03:47:11;4.70;99.90
23114;DHT22;11726;50.122;8.832;2023-04-03T03:49:38;4.70;99.90
23114;DHT22;11726;50.122;8.832;2023-04-03T03:52:04;4.70;99.90
23114;DHT22;11726;50.122;8.832;2023-04-03T03:54:31;4.70;99.90
23114;DHT22;11726;50.122;8.832;2023-04-03T03:56:58;4.60;99.90
23114;DHT22;11726;50.122;8.832;2023-04-03T03:59:24;4.70;99.90
23114;DHT22;11726;50.122;8.832;2023-04-03T04:01:51;4.70;99.90
23114;DHT22;11726;50.122;8.832;2023-04-03T04:04:18;4.60;99.90
23114;DHT22;11726;50.122;8.832;2023-04-03T04:06:45;4.60;99.90
23114;DHT22;11726;50.122;8.832;2023-04-03T04:09:11;4.50;99.90
23114;DHT22;11726;50.122;8.832;2023-04-03T04:11:41;4.60;99.90
23114;DHT22;11726;50.122;8.832;2023-04-03T04:14:08;4.50;99.90
23114;DHT22;11726;50.122;8.832;2023-04-03T04:16:39;4.50;99.90
23114;DHT22;11726;50.122;8.832;2023-04-03T04:19:06;4.50;99.90
23114;DHT22;11726;50.122;8.832;2023-04-03T04:21:34;4.40;99.90
23114;DHT22;11726;50.122;8.832;2023-04-03T04:24:01;4.40;99.90
23114;DHT22;11726;50.122;8.832;2023-04-03T04:26:28;4.40;99.90
23114;DHT22;11726;50.122;8.832;2023-04-03T04:28:56;4.30;99.90
23114;DHT22;11726;50.122;8.832;2023-04-03T04:31:23;4.30;99.90
23114;DHT22;11726;50.122;8.832;2023-04-03T04:33:50;4.30;99.90
23114;DHT22;11726;50.122;8.832;2023-04-03T04:36:16;4.20;99.90
23114;DHT22;11726;50.122;8.832;2023-04-03T04:38:43;4.20;99.90
23114;DHT22;11726;50.122;8.832;2023-04-03T04:41:10;4.10;99.90
23114;DHT22;11726;50.122;8.832;2023-04-03T04:43:37;4.10;99.90
23114;DHT22;11726;50.122;8.832;2023-04-03T04:46:09;4.20;99.90
23114;DHT22;11726;50.122;8.832;2023-04-03T04:48:36;4.10;99.90
23114;DHT22;11726;50.122;8.832;2023-04-03T04:51:03;4.10;99.90
23114;DHT22;11726;50.122;8.832;2023-04-03T04:53:30;4.10;99.90
23114;DHT22;11726;50.122;8.832;2023-04-03T04:55:57;4.10;99.90
23114;DHT22;11726;50.122;8.832;2023-04-03T04:58:24;4.00;99.90
23114;DHT22;11726;50.122;8.832;2023-04-03T05:01:02;4.00;99.90
23114;DHT22;11726;50.122;8.832;2023-04-03T05:03:29;3.90;99.90
23114;DHT22;11726;50.122;8.832;2023-04-03T05:05:56;3.90;99.90
23114;DHT22;11726;50.122;8.832;2023-04-03T05:08:24;3.90;99.90
23114;DHT22;11726;50.122;8.832;2023-04-03T05:10:51;3.90;99.90
23114;DHT22;11726;50.122;8.832;2023-04-03T05:13:20;3.80;99.90
23114;DHT22;11726;50.122;8.832;2023-04-03T05:15:47;3.80;99.90
23114;DHT22;11726;50.122;8.832;2023-04-03T05:18:15;3.80;99.90
23114;DHT22;11726;50.122;8.832;2023-04-03T05:20:42;3.60;99.90
23114;DHT22;11726;50.122;8.832;2023-04-03T05:23:10;3.70;99.90
23114;DHT22;11726;50.122;8.832;2023-04-03T05:25:40;3.70;99.90
23114;DHT22;11726;50.122;8.832;2023-04-03T05:28:07;3.60;99.90
23114;DHT22;11726;50.122;8.832;2023-04-03T05:30:34;3.60;99.90
23114;DHT22;11726;50.122;8.832;2023-04-03T05:33:00;3.50;99.90
23114;DHT22;11726;50.122;8.832;2023-04-03T05:35:27;3.60;99.90
23114;DHT22;11726;50.122;8.832;2023-04-03T05:37:54;3.60;99.90
23114;DHT22;11726;50.122;8.832;2023-04-03T05:40:21;3.60;99.90
23114;DHT22;11726;50.122;8.832;2023-04-03T05:42:48;3.50;99.90
23114;DHT22;11726;50.122;8.832;2023-04-03T05:45:15;3.50;99.90
23114;DHT22;11726;50.122;8.832;2023-04-03T05:47:42;3.60;99.90
23114;DHT22;11726;50.122;8.832;2023-04-03T05:50:09;3.50;99.90
23114;DHT22;11726;50.122;8.832;2023-04-03T05:52:37;3.50;99.90
23114;DHT22;11726;50.122;8.832;2023-04-03T05:55:05;3.50;99.90
23114;DHT22;11726;50.122;8.832;2023-04-03T05:57:32;3.50;99.90
23114;DHT22;11726;50.122;8.832;2023-04-03T05:59:59;3.60;99.90
23114;DHT22;11726;50.122;8.832;2023-04-03T06:02:26;3.60;99.90
23114;DHT22;11726;50.122;8.832;2023-04-03T06:04:56;3.60;99.90
23114;DHT22;11726;50.122;8.832;2023-04-03T06:07:24;3.50;99.90
23114;DHT22;11726;50.122;8.832;2023-04-03T06:09:55;3.50;99.90
23114;DHT22;11726;50.122;8.832;2023-04-03T06:12:22;3.60;99.90
23114;DHT22;11726;50.122;8.832;2023-04-03T06:14:49;3.60;99.90
23114;DHT22;11726;50.122;8.832;2023-04-03T06:17:16;3.60;99.90
23114;DHT22;11726;50.122;8.832;2023-04-03T06:19:44;3.70;99.90
23114;DHT22;11726;50.122;8.832;2023-04-03T06:22:12;3.70;99.90
23114;DHT22;11726;50.122;8.832;2023-04-03T06:24:39;3.60;99.90
23114;DHT22;11726;50.122;8.832;2023-04-03T06:27:06;3.70;99.90
23114;DHT22;11726;50.122;8.832;2023-04-03T06:29:33;3.70;99.90
23114;DHT22;11726;50.122;8.832;2023-04-03T06:32:00;3.70;99.90
23114;DHT22;11726;50.122;8.832;2023-04-03T06:34:26;3.80;99.90
23114;DHT22;11726;50.122;8.832;2023-04-03T06:36:55;3.80;99.90
23114;DHT22;11726;50.122;8.832;2023-04-03T06:39:22;3.80;99.90
23114;DHT22;11726;50.122;8.832;2023-04-03T06:41:50;3.80;99.90
23114;DHT22;11726;50.122;8.832;2023-04-03T06:44:17;3.80;99.90
23114;DHT22;11726;50.122;8.832;2023-04-03T06:46:45;3.90;99.90
23114;DHT22;11726;50.122;8.832;2023-04-03T06:49:14;4.00;99.90
23114;DHT22;11726;50.122;8.832;2023-04-03T06:51:41;4.00;99.90
23114;DHT22;11726;50.122;8.832;2023-04-03T06:54:08;4.00;99.90
23114;DHT22;11726;50.122;8.832;2023-04-03T06:56:35;4.20;99.90
23114;DHT22;11726;50.122;8.832;2023-04-03T06:59:04;4.40;99.90
23114;DHT22;11726;50.122;8.832;2023-04-03T07:01:34;4.40;99.90
23114;DHT22;11726;50.122;8.832;2023-04-03T07:04:00;4.40;99.90
23114;DHT22;11726;50.122;8.832;2023-04-03T07:06:27;4.40;99.90
23114;DHT22;11726;50.122;8.832;2023-04-03T07:08:54;4.40;99.90
23114;DHT22;11726;50.122;8.832;2023-04-03T07:11:22;4.50;99.90
23114;DHT22;11726;50.122;8.832;2023-04-03T07:13:49;4.40;99.90
23114;DHT22;11726;50.122;8.832;2023-04-03T07:16:16;4.50;99.90
23114;DHT22;11726;50.122;8.832;2023-04-03T07:18:43;4.50;99.90
23114;DHT22;11726;50.122;8.832;2023-04-03T07:21:10;4.60;99.90
23114;DHT22;11726;50.122;8.832;2023-04-03T07:23:37;4.70;99.90
23114;DHT22;11726;50.122;8.832;2023-04-03T07:26:04;4.80;99.90
23114;DHT22;11726;50.122;8.832;2023-04-03T07:28:31;4.80;99.90
23114;DHT22;11726;50.122;8.832;2023-04-03T07:31:04;4.90;99.90
23114;DHT22;11726;50.122;8.832;2023-04-03T07:33:32;4.90;99.90
23114;DHT22;11726;50.122;8.832;2023-04-03T07:35:59;4.80;99.90
23114;DHT22;11726;50.122;8.832;2023-04-03T07:38:27;4.90;99.90
23114;DHT22;11726;50.122;8.832;2023-04-03T07:40:54;5.10;99.90
23114;DHT22;11726;50.122;8.832;2023-04-03T07:43:21;5.10;99.90
23114;DHT22;11726;50.122;8.832;2023-04-03T07:45:49;5.00;99.90
23114;DHT22;11726;50.122;8.832;2023-04-03T07:48:20;5.10;99.90
23114;DHT22;11726;50.122;8.832;2023-04-03T07:50:47;5.10;99.90
23114;DHT22;11726;50.122;8.832;2023-04-03T07:53:14;5.10;99.90
23114;DHT22;11726;50.122;8.832;2023-04-03T07:55:41;5.20;99.90
23114;DHT22;11726;50.122;8.832;2023-04-03T07:58:13;5.50;99.90
23114;DHT22;11726;50.122;8.832;2023-04-03T08:00:41;5.70;99.90
23114;DHT22;11726;50.122;8.832;2023-04-03T08:03:09;5.70;99.90
23114;DHT22;11726;50.122;8.832;2023-04-03T08:05:40;5.50;99.90
23114;DHT22;11726;50.122;8.832;2023-04-03T08:08:09;5.70;99.90
23114;DHT22;11726;50.122;8.832;2023-04-03T08:10:36;5.90;99.90
23114;DHT22;11726;50.122;8.832;2023-04-03T08:13:04;6.00;99.90
23114;DHT22;11726;50.122;8.832;2023-04-03T08:15:31;5.70;99.90
23114;DHT22;11726;50.122;8.832;2023-04-03T08:17:59;6.00;99.90
23114;DHT22;11726;50.122;8.832;2023-04-03T08:20:26;5.90;99.90
23114;DHT22;11726;50.122;8.832;2023-04-03T08:22:53;6.10;99.90
23114;DHT22;11726;50.122;8.832;2023-04-03T08:25:20;6.30;99.90
23114;DHT22;11726;50.122;8.832;2023-04-03T08:27:47;6.30;99.90
23114;DHT22;11726;50.122;8.832;2023-04-03T08:30:14;6.30;99.90
23114;DHT22;11726;50.122;8.832;2023-04-03T08:32:40;6.20;99.90
23114;DHT22;11726;50.122;8.832;2023-04-03T08:35:11;6.30;99.90
23114;DHT22;11726;50.122;8.832;2023-04-03T08:37:38;6.50;99.90
23114;DHT22;11726;50.122;8.832;2023-04-03T08:40:10;6.50;99.90
23114;DHT22;11726;50.122;8.832;2023-04-03T08:42:58;6.80;99.90
23114;DHT22;11726;50.122;8.832;2023-04-03T08:45:50;6.60;99.90
23114;DHT22;11726;50.122;8.832;2023-04-03T08:48:29;6.40;99.90
23114;DHT22;11726;50.122;8.832;2023-04-03T08:51:00;6.50;99.90
23114;DHT22;11726;50.122;8.832;2023-04-03T08:53:32;6.40;99.90
23114;DHT22;11726;50.122;8.832;2023-04-03T08:56:08;6.40;99.90
23114;DHT22;11726;50.122;8.832;2023-04-03T08:58:56;6.50;99.90
23114;DHT22;11726;50.122;8.832;2023-04-03T09:01:39;6.70;99.90
23114;DHT22;11726;50.122;8.832;2023-04-03T09:04:26;6.70;99.90
23114;DHT22;11726;50.122;8.832;2023-04-03T09:06:57;6.40;99.90
23114;DHT22;11726;50.122;8.832;2023-04-03T09:09:31;6.30;99.90
23114;DHT22;11726;50.122;8.832;2023-04-03T09:12:24;6.50;99.90
23114;DHT22;11726;50.122;8.832;2023-04-03T09:15:06;6.80;99.90
23114;DHT22;11726;50.122;8.832;2023-04-03T09:23:18;6.40;99.90
23114;DHT22;11726;50.122;8.832;2023-04-03T09:25:47;6.50;99.90
23114;DHT22;11726;50.122;8.832;2023-04-03T09:28:15;6.80;99.90
23114;DHT22;11726;50.122;8.832;2023-04-03T09:30:42;6.60;99.90
23114;DHT22;11726;50.122;8.832;2023-04-03T09:33:10;6.40;99.90
23114;DHT22;11726;50.122;8.832;2023-04-03T09:35:40;6.90;99.90
23114;DHT22;11726;50.122;8.832;2023-04-03T09:38:15;6.80;99.90
23114;DHT22;11726;50.122;8.832;2023-04-03T09:40:49;6.70;99.90
23114;DHT22;11726;50.122;8.832;2023-04-03T09:43:25;6.80;99.90
23114;DHT22;11726;50.122;8.832;2023-04-03T09:45:54;6.90;99.90
23114;DHT22;11726;50.122;8.832;2023-04-03T09:48:23;7.00;99.90
23114;DHT22;11726;50.122;8.832;2023-04-03T09:55:57;7.20;99.90
23114;DHT22;11726;50.122;8.832;2023-04-03T09:58:30;7.30;99.90
23114;DHT22;11726;50.122;8.832;2023-04-03T10:01:27;7.30;99.90
23114;DHT22;11726;50.122;8.832;2023-04-03T10:06:36;7.80;99.90
23114;DHT22;11726;50.122;8.832;2023-04-03T10:09:20;7.40;99.90
23114;DHT22;11726;50.122;8.832;2023-04-03T10:12:06;7.50;99.90
23114;DHT22;11726;50.122;8.832;2023-04-03T10:14:59;7.20;99.90
23114;DHT22;11726;50.122;8.832;2023-04-03T10:20:29;7.60;99.90
23114;DHT22;11726;50.122;8.832;2023-04-03T10:36:12;8.20;98.40
23114;DHT22;11726;50.122;8.832;2023-04-03T10:50:49;8.70;98.00
23114;DHT22;11726;50.122;8.832;2023-04-03T10:58:40;8.50;95.90
23114;DHT22;11726;50.122;8.832;2023-04-03T11:01:13;8.80;95.30
23114;DHT22;11726;50.122;8.832;2023-04-03T11:03:43;9.00;94.50
23114;DHT22;11726;50.122;8.832;2023-04-03T11:06:13;9.20;94.60
23114;DHT22;11726;50.122;8.832;2023-04-03T11:08:50;8.90;93.10
23114;DHT22;11726;50.122;8.832;2023-04-03T11:11:22;8.90;94.80
23114;DHT22;11726;50.122;8.832;2023-04-03T11:14:01;8.60;94.30
23114;DHT22;11726;50.122;8.832;2023-04-03T11:16:31;8.60;91.60
23114;DHT22;11726;50.122;8.832;2023-04-03T11:19:31;8.60;92.20
23114;DHT22;11726;50.122;8.832;2023-04-03T11:22:25;8.80;91.80
23114;DHT22;11726;50.122;8.832;2023-04-03T11:27:37;8.90;91.50
23114;DHT22;11726;50.122;8.832;2023-04-03T11:31:01;9.10;92.30
23114;DHT22;11726;50.122;8.832;2023-04-03T11:35:53;9.00;90.30
23114;DHT22;11726;50.122;8.832;2023-04-03T11:39:00;9.30;91.80
23114;DHT22;11726;50.122;8.832;2023-04-03T11:41:34;9.20;90.30
23114;DHT22;11726;50.122;8.832;2023-04-03T11:44:25;9.40;89.10
23114;DHT22;11726;50.122;8.832;2023-04-03T11:46:58;9.50;90.10
23114;DHT22;11726;50.122;8.832;2023-04-03T11:49:59;9.20;88.10
23114;DHT22;11726;50.122;8.832;2023-04-03T12:16:21;9.60;90.00
23114;DHT22;11726;50.122;8.832;2023-04-03T12:23:58;9.20;85.00
23114;DHT22;11726;50.122;8.832;2023-04-03T12:29:34;9.00;85.90
23114;DHT22;11726;50.122;8.832;2023-04-03T12:37:57;8.60;87.40
23114;DHT22;11726;50.122;8.832;2023-04-03T12:48:24;8.90;84.50
23114;DHT22;11726;50.122;8.832;2023-04-03T12:50:55;9.20;88.00
23114;DHT22;11726;50.122;8.832;2023-04-03T12:53:25;9.10;84.70
23114;DHT22;11726;50.122;8.832;2023-04-03T12:55:57;9.30;85.30
23114;DHT22;11726;50.122;8.832;2023-04-03T12:58:44;9.60;85.50
23114;DHT22;11726;50.122;8.832;2023-04-03T13:01:13;9.30;82.20
23114;DHT22;11726;50.122;8.832;2023-04-03T13:03:45;9.20;83.50
23114;DHT22;11726;50.122;8.832;2023-04-03T13:06:19;9.60;82.50
23114;DHT22;11726;50.122;8.832;2023-04-03T13:08:54;9.50;83.50
23114;DHT22;11726;50.122;8.832;2023-04-03T13:11:27;9.40;85.00
23114;DHT22;11726;50.122;8.832;2023-04-03T13:14:19;9.40;81.60
23114;DHT22;11726;50.122;8.832;2023-04-03T13:17:18;9.70;81.70
23114;DHT22;11726;50.122;8.832;2023-04-03T13:19:46;9.90;81.30
23114;DHT22;11726;50.122;8.832;2023-04-03T13:22:35;10.10;81.40
23114;DHT22;11726;50.122;8.832;2023-04-03T13:25:07;10.20;80.60
23114;DHT22;11726;50.122;8.832;2023-04-03T13:27:35;10.10;78.20
23114;DHT22;11726;50.122;8.832;2023-04-03T13:30:03;10.80;79.50
23114;DHT22;11726;50.122;8.832;2023-04-03T13:32:31;10.40;77.80
23114;DHT22;11726;50.122;8.832;2023-04-03T13:34:59;11.00;77.70
23114;DHT22;11726;50.122;8.832;2023-04-03T13:37:55;11.30;75.00
23114;DHT22;11726;50.122;8.832;2023-04-03T13:40:25;11.20;73.50
23114;DHT22;11726;50.122;8.832;2023-04-03T13:43:04;11.50;73.40
23114;DHT22;11726;50.122;8.832;2023-04-03T13:45:33;11.60;74.40
23114;DHT22;11726;50.122;8.832;2023-04-03T13:48:35;11.80;74.70
23114;DHT22;11726;50.122;8.832;2023-04-03T13:51:18;11.80;72.00
23114;DHT22;11726;50.122;8.832;2023-04-03T13:53:58;12.10;72.30
23114;DHT22;11726;50.122;8.832;2023-04-03T13:56:37;11.80;71.40
23114;DHT22;11726;50.122;8.832;2023-04-03T14:04:18;11.90;69.50
23114;DHT22;11726;50.122;8.832;2023-04-03T14:06:46;11.70;67.90
23114;DHT22;11726;50.122;8.832;2023-04-03T14:09:14;11.70;68.00
23114;DHT22;11726;50.122;8.832;2023-04-03T14:11:43;12.00;68.40
23114;DHT22;11726;50.122;8.832;2023-04-03T14:14:19;12.10;67.90
23114;DHT22;11726;50.122;8.832;2023-04-03T14:16:52;12.60;67.00
23114;DHT22;11726;50.122;8.832;2023-04-03T14:19:28;12.30;64.50
23114;DHT22;11726;50.122;8.832;2023-04-03T14:21:55;12.20;65.50
23114;DHT22;11726;50.122;8.832;2023-04-03T14:24:25;11.70;68.20
23114;DHT22;11726;50.122;8.832;2023-04-03T14:26:53;12.00;68.20
23114;DHT22;11726;50.122;8.832;2023-04-03T14:29:21;12.70;69.00
23114;DHT22;11726;50.122;8.832;2023-04-03T14:31:48;12.70;66.20
23114;DHT22;11726;50.122;8.832;2023-04-03T14:34:26;12.10;64.10
23114;DHT22;11726;50.122;8.832;2023-04-03T14:36:52;11.70;65.90
23114;DHT22;11726;50.122;8.832;2023-04-03T14:39:20;12.10;65.40
23114;DHT22;11726;50.122;8.832;2023-04-03T14:41:47;12.50;66.20
23114;DHT22;11726;50.122;8.832;2023-04-03T14:44:14;12.80;65.40
23114;DHT22;11726;50.122;8.832;2023-04-03T14:46:43;12.50;65.20
23114;DHT22;11726;50.122;8.832;2023-04-03T14:49:25;12.20;65.20
23114;DHT22;11726;50.122;8.832;2023-04-03T14:51:52;12.30;63.40
23114;DHT22;11726;50.122;8.832;2023-04-03T14:54:21;12.30;63.80
23114;DHT22;11726;50.122;8.832;2023-04-03T14:56:52;12.60;64.40
23114;DHT22;11726;50.122;8.832;2023-04-03T14:59:19;12.80;63.70
23114;DHT22;11726;50.122;8.832;2023-04-03T15:01:48;12.50;63.20
23114;DHT22;11726;50.122;8.832;2023-04-03T15:04:18;12.70;62.70
23114;DHT22;11726;50.122;8.832;2023-04-03T15:06:46;12.80;64.00
23114;DHT22;11726;50.122;8.832;2023-04-03T15:09:24;12.80;62.60
23114;DHT22;11726;50.122;8.832;2023-04-03T15:11:52;12.60;63.00
23114;DHT22;11726;50.122;8.832;2023-04-03T15:14:19;12.60;61.60
23114;DHT22;11726;50.122;8.832;2023-04-03T15:17:04;12.40;61.50
23114;DHT22;11726;50.122;8.832;2023-04-03T15:19:36;12.50;61.50
23114;DHT22;11726;50.122;8.832;2023-04-03T15:22:04;12.90;62.10
23114;DHT22;11726;50.122;8.832;2023-04-03T15:24:30;13.10;61.90
23114;DHT22;11726;50.122;8.832;2023-04-03T15:26:57;12.90;59.40
23114;DHT22;11726;50.122;8.832;2023-04-03T15:29:24;12.40;60.60
23114;DHT22;11726;50.122;8.832;2023-04-03T15:31:51;12.60;61.60
23114;DHT22;11726;50.122;8.832;2023-04-03T15:34:20;12.60;60.80
23114;DHT22;11726;50.122;8.832;2023-04-03T15:36:50;12.40;61.90
23114;DHT22;11726;50.122;8.832;2023-04-03T15:39:19;12.60;61.00
23114;DHT22;11726;50.122;8.832;2023-04-03T15:41:47;12.50;61.80
23114;DHT22;11726;50.122;8.832;2023-04-03T15:44:14;12.50;61.80
23114;DHT22;11726;50.122;8.832;2023-04-03T15:46:45;12.10;61.70
23114;DHT22;11726;50.122;8.832;2023-04-03T15:49:13;11.70;62.10
23114;DHT22;11726;50.122;8.832;2023-04-03T15:51:40;11.80;64.00
23114;DHT22;11726;50.122;8.832;2023-04-03T15:54:07;11.70;64.10
23114;DHT22;11726;50.122;8.832;2023-04-03T15:56:34;11.80;64.90
23114;DHT22;11726;50.122;8.832;2023-04-03T15:59:01;11.40;63.80
23114;DHT22;11726;50.122;8.832;2023-04-03T16:01:31;11.10;64.00
23114;DHT22;11726;50.122;8.832;2023-04-03T16:03:58;10.90;64.70
23114;DHT22;11726;50.122;8.832;2023-04-03T16:13:54;10.60;66.00
23114;DHT22;11726;50.122;8.832;2023-04-03T16:16:21;10.30;65.90
23114;DHT22;11726;50.122;8.832;2023-04-03T16:18:48;10.30;66.20
23114;DHT22;11726;50.122;8.832;2023-04-03T16:21:16;10.30;66.90
23114;DHT22;11726;50.122;8.832;2023-04-03T16:23:44;10.10;66.70
23114;DHT22;11726;50.122;8.832;2023-04-03T16:26:11;9.80;66.90
23114;DHT22;11726;50.122;8.832;2023-04-03T16:28:37;9.60;68.20
23114;DHT22;11726;50.122;8.832;2023-04-03T16:31:05;9.70;68.90
23114;DHT22;11726;50.122;8.832;2023-04-03T16:33:33;9.80;69.60
23114;DHT22;11726;50.122;8.832;2023-04-03T16:35:59;9.80;68.30
23114;DHT22;11726;50.122;8.832;2023-04-03T16:38:28;9.50;68.90
23114;DHT22;11726;50.122;8.832;2023-04-03T16:40:55;9.20;69.50
23114;DHT22;11726;50.122;8.832;2023-04-03T16:43:26;9.10;69.50
23114;DHT22;11726;50.122;8.832;2023-04-03T16:45:53;9.20;70.20
23114;DHT22;11726;50.122;8.832;2023-04-03T16:48:20;9.10;71.50
23114;DHT22;11726;50.122;8.832;2023-04-03T16:50:48;8.80;69.70
23114;DHT22;11726;50.122;8.832;2023-04-03T16:53:15;8.80;70.40
23114;DHT22;11726;50.122;8.832;2023-04-03T16:55:42;8.80;70.40
23114;DHT22;11726;50.122;8.832;2023-04-03T16:58:09;8.70;70.50
23114;DHT22;11726;50.122;8.832;2023-04-03T17:00:36;8.80;71.80
23114;DHT22;11726;50.122;8.832;2023-04-03T17:03:03;8.70;71.20
23114;DHT22;11726;50.122;8.832;2023-04-03T17:05:30;8.70;71.20
23114;DHT22;11726;50.122;8.832;2023-04-03T17:07:58;8.60;70.60
23114;DHT22;11726;50.122;8.832;2023-04-03T17:10:25;8.60;71.70
23114;DHT22;11726;50.122;8.832;2023-04-03T17:12:52;8.50;71.70
23114;DHT22;11726;50.122;8.832;2023-04-03T17:15:19;8.30;72.20
23114;DHT22;11726;50.122;8.832;2023-04-03T17:17:47;8.20;73.20
23114;DHT22;11726;50.122;8.832;2023-04-03T17:20:15;8.10;74.20
23114;DHT22;11726;50.122;8.832;2023-04-03T17:22:42;8.00;74.30
23114;DHT22;11726;50.122;8.832;2023-04-03T17:25:09;8.00;74.60
23114;DHT22;11726;50.122;8.832;2023-04-03T17:27:36;7.90;74.80
23114;DHT22;11726;50.122;8.832;2023-04-03T17:30:04;7.80;74.40
23114;DHT22;11726;50.122;8.832;2023-04-03T17:32:31;7.70;75.40
23114;DHT22;11726;50.122;8.832;2023-04-03T17:35:00;7.60;75.00
23114;DHT22;11726;50.122;8.832;2023-04-03T17:37:27;7.60;76.00
23114;DHT22;11726;50.122;8.832;2023-04-03T17:39:54;7.50;75.80
23114;DHT22;11726;50.122;8.832;2023-04-03T17:42:20;7.50;75.60
23114;DHT22;11726;50.122;8.832;2023-04-03T17:44:49;7.40;75.40
23114;DHT22;11726;50.122;8.832;2023-04-03T17:47:16;7.40;75.80
23114;DHT22;11726;50.122;8.832;2023-04-03T17:49:43;7.30;76.70
23114;DHT22;11726;50.122;8.832;2023-04-03T17:52:09;7.20;76.60
23114;DHT22;11726;50.122;8.832;2023-04-03T17:54:36;7.20;75.80
23114;DHT22;11726;50.122;8.832;2023-04-03T17:57:03;7.10;76.00